Faxon, Kentucky
Current Conditions -  °F | °C
As of 7:55 PM on Tuesday 25 Nov 2014 (Local Time) from KCEY Reporting Station
Clear Clear  
Wind Chill: 36°   Ceiling: Unl
Heat Index: 36°   Visibility: 10mi
Dew Point: 27°   Wind: 3mph
Humidity: 70%   Direction: 330°NNW
Pressure: 30.19"   Gusts: NA
Location:  36.618°N, 88.2562°W
Report Text: KCEY 260155Z AUTO 33003KT 10SM CLR 02/M03 A3019 RMK AO1
Loading
Personal Weather Stations






























Interactive Weather Map New forecast layout! Learn more

10-Day Weather Forecast

Advertisements
Track Severe Weather on mobile